Estrella, Colorado
Current Conditions -  °F | °C
As of 6:52 PM on Friday 21 Nov 2014 (Local Time) from KALS Reporting Station
Clear Clear  
Wind Chill: 29°   Ceiling: Unl
Heat Index: 29°   Visibility: 10mi
Dew Point: 13°   Wind: 3mph
Humidity: 51%   Direction: 170°S
Pressure: 30.07"   Gusts: NA
Location:  37.469°N, 105.836°W
Report Text: KALS 220152Z AUTO 17003KT 10SM CLR M02/M11 A3007 RMK AO2 SLP227 T10171106
Loading
Personal Weather Stations






























Interactive Weather Map New forecast layout! Learn more

10-Day Weather Forecast

Advertisements
Track Severe Weather on mobile